sensor_id;sensor_type;location;lat;lon;timestamp;temperature;humidity
6841;DHT22;3458;53.678;14.080;2023-05-15T00:00:13;16.20;84.90
6841;DHT22;3458;53.678;14.080;2023-05-15T00:02:39;16.20;85.60
6841;DHT22;3458;53.678;14.080;2023-05-15T00:05:06;16.20;86.50
6841;DHT22;3458;53.678;14.080;2023-05-15T00:07:32;16.20;87.20
6841;DHT22;3458;53.678;14.080;2023-05-15T00:09:58;16.20;87.80
6841;DHT22;3458;53.678;14.080;2023-05-15T00:12:23;16.10;88.60
6841;DHT22;3458;53.678;14.080;2023-05-15T00:14:49;16.10;89.10
6841;DHT22;3458;53.678;14.080;2023-05-15T00:17:14;16.10;89.60
6841;DHT22;3458;53.678;14.080;2023-05-15T00:19:40;16.10;90.00
6841;DHT22;3458;53.678;14.080;2023-05-15T00:22:06;16.00;90.20
6841;DHT22;3458;53.678;14.080;2023-05-15T00:24:32;16.00;90.40
6841;DHT22;3458;53.678;14.080;2023-05-15T00:26:59;16.00;90.70
6841;DHT22;3458;53.678;14.080;2023-05-15T00:29:24;15.90;91.10
6841;DHT22;3458;53.678;14.080;2023-05-15T00:31:50;15.90;91.50
6841;DHT22;3458;53.678;14.080;2023-05-15T00:34:15;15.90;91.90
6841;DHT22;3458;53.678;14.080;2023-05-15T00:36:41;15.80;92.00
6841;DHT22;3458;53.678;14.080;2023-05-15T00:39:06;15.80;92.40
6841;DHT22;3458;53.678;14.080;2023-05-15T00:41:32;15.80;92.60
6841;DHT22;3458;53.678;14.080;2023-05-15T00:43:59;15.70;92.80
6841;DHT22;3458;53.678;14.080;2023-05-15T00:46:27;15.70;93.20
6841;DHT22;3458;53.678;14.080;2023-05-15T00:48:55;15.70;93.50
6841;DHT22;3458;53.678;14.080;2023-05-15T00:51:20;15.60;93.90
6841;DHT22;3458;53.678;14.080;2023-05-15T00:53:46;15.60;94.00
6841;DHT22;3458;53.678;14.080;2023-05-15T00:56:11;15.50;94.30
6841;DHT22;3458;53.678;14.080;2023-05-15T00:58:37;15.50;94.50
6841;DHT22;3458;53.678;14.080;2023-05-15T01:01:03;15.40;94.50
6841;DHT22;3458;53.678;14.080;2023-05-15T01:03:29;15.40;94.70
6841;DHT22;3458;53.678;14.080;2023-05-15T01:05:55;15.40;94.70
6841;DHT22;3458;53.678;14.080;2023-05-15T01:11:05;15.30;95.50
6841;DHT22;3458;53.678;14.080;2023-05-15T01:13:31;15.30;95.30
6841;DHT22;3458;53.678;14.080;2023-05-15T01:15:58;15.20;95.30
6841;DHT22;3458;53.678;14.080;2023-05-15T01:18:23;15.20;95.30
6841;DHT22;3458;53.678;14.080;2023-05-15T01:21:26;15.20;95.30
6841;DHT22;3458;53.678;14.080;2023-05-15T01:27:00;15.10;95.20
6841;DHT22;3458;53.678;14.080;2023-05-15T01:29:36;15.10;95.30
6841;DHT22;3458;53.678;14.080;2023-05-15T01:32:09;15.00;95.40
6841;DHT22;3458;53.678;14.080;2023-05-15T01:34:43;15.00;95.70
6841;DHT22;3458;53.678;14.080;2023-05-15T01:37:11;15.00;95.80
6841;DHT22;3458;53.678;14.080;2023-05-15T01:39:41;14.90;96.00
6841;DHT22;3458;53.678;14.080;2023-05-15T01:42:09;14.90;95.90
6841;DHT22;3458;53.678;14.080;2023-05-15T01:44:51;14.90;96.00
6841;DHT22;3458;53.678;14.080;2023-05-15T01:47:21;14.80;96.10
6841;DHT22;3458;53.678;14.080;2023-05-15T01:49:53;14.80;96.20
6841;DHT22;3458;53.678;14.080;2023-05-15T01:52:25;14.80;96.50
6841;DHT22;3458;53.678;14.080;2023-05-15T01:54:54;14.80;96.70
6841;DHT22;3458;53.678;14.080;2023-05-15T01:57:21;14.70;96.70
6841;DHT22;3458;53.678;14.080;2023-05-15T01:59:47;14.80;96.90
6841;DHT22;3458;53.678;14.080;2023-05-15T02:02:14;14.70;97.00
6841;DHT22;3458;53.678;14.080;2023-05-15T02:04:43;14.70;97.10
6841;DHT22;3458;53.678;14.080;2023-05-15T02:07:09;14.70;97.20
6841;DHT22;3458;53.678;14.080;2023-05-15T02:09:35;14.60;97.30
6841;DHT22;3458;53.678;14.080;2023-05-15T02:12:01;14.60;97.40
6841;DHT22;3458;53.678;14.080;2023-05-15T02:14:28;14.60;97.60
6841;DHT22;3458;53.678;14.080;2023-05-15T02:16:54;14.60;97.60
6841;DHT22;3458;53.678;14.080;2023-05-15T02:19:20;14.50;97.40
6841;DHT22;3458;53.678;14.080;2023-05-15T02:21:45;14.50;97.50
6841;DHT22;3458;53.678;14.080;2023-05-15T02:24:10;14.50;97.50
6841;DHT22;3458;53.678;14.080;2023-05-15T02:37:55;14.30;97.50
6841;DHT22;3458;53.678;14.080;2023-05-15T02:40:23;14.20;97.70
6841;DHT22;3458;53.678;14.080;2023-05-15T02:42:51;14.20;97.80
6841;DHT22;3458;53.678;14.080;2023-05-15T02:45:18;14.20;97.80
6841;DHT22;3458;53.678;14.080;2023-05-15T02:47:44;14.20;98.00
6841;DHT22;3458;53.678;14.080;2023-05-15T02:50:10;14.20;98.00
6841;DHT22;3458;53.678;14.080;2023-05-15T02:52:36;14.10;98.10
6841;DHT22;3458;53.678;14.080;2023-05-15T02:55:01;14.10;98.20
6841;DHT22;3458;53.678;14.080;2023-05-15T02:57:27;14.10;98.20
6841;DHT22;3458;53.678;14.080;2023-05-15T02:59:53;14.00;98.20
6841;DHT22;3458;53.678;14.080;2023-05-15T03:02:19;14.00;98.20
6841;DHT22;3458;53.678;14.080;2023-05-15T03:04:45;14.00;98.30
6841;DHT22;3458;53.678;14.080;2023-05-15T03:07:10;14.00;98.20
6841;DHT22;3458;53.678;14.080;2023-05-15T03:09:36;13.90;98.20
6841;DHT22;3458;53.678;14.080;2023-05-15T03:12:01;13.90;98.30
6841;DHT22;3458;53.678;14.080;2023-05-15T03:14:27;13.90;98.30
6841;DHT22;3458;53.678;14.080;2023-05-15T03:16:52;13.80;98.40
6841;DHT22;3458;53.678;14.080;2023-05-15T03:19:18;13.80;98.40
6841;DHT22;3458;53.678;14.080;2023-05-15T03:21:43;13.80;98.40
6841;DHT22;3458;53.678;14.080;2023-05-15T03:24:09;13.80;98.30
6841;DHT22;3458;53.678;14.080;2023-05-15T03:26:34;13.80;98.50
6841;DHT22;3458;53.678;14.080;2023-05-15T03:29:00;13.80;98.70
6841;DHT22;3458;53.678;14.080;2023-05-15T03:31:26;13.80;98.80
6841;DHT22;3458;53.678;14.080;2023-05-15T03:33:51;13.80;98.90
6841;DHT22;3458;53.678;14.080;2023-05-15T03:36:17;13.80;98.90
6841;DHT22;3458;53.678;14.080;2023-05-15T03:38:42;13.80;99.00
6841;DHT22;3458;53.678;14.080;2023-05-15T03:41:11;13.70;99.00
6841;DHT22;3458;53.678;14.080;2023-05-15T03:43:37;13.80;99.20
6841;DHT22;3458;53.678;14.080;2023-05-15T03:46:02;13.80;99.20
6841;DHT22;3458;53.678;14.080;2023-05-15T03:48:28;13.80;99.20
6841;DHT22;3458;53.678;14.080;2023-05-15T03:50:53;13.80;99.30
6841;DHT22;3458;53.678;14.080;2023-05-15T03:53:19;13.80;99.30
6841;DHT22;3458;53.678;14.080;2023-05-15T03:55:44;13.70;99.50
6841;DHT22;3458;53.678;14.080;2023-05-15T03:58:10;13.70;99.60
6841;DHT22;3458;53.678;14.080;2023-05-15T04:00:35;13.70;99.40
6841;DHT22;3458;53.678;14.080;2023-05-15T04:03:01;13.70;99.60
6841;DHT22;3458;53.678;14.080;2023-05-15T04:05:26;13.70;99.90
6841;DHT22;3458;53.678;14.080;2023-05-15T04:07:52;13.70;99.90
6841;DHT22;3458;53.678;14.080;2023-05-15T04:10:17;13.70;99.90
6841;DHT22;3458;53.678;14.080;2023-05-15T04:12:43;13.60;99.90
6841;DHT22;3458;53.678;14.080;2023-05-15T04:15:22;13.60;99.90
6841;DHT22;3458;53.678;14.080;2023-05-15T04:17:50;13.60;99.90
6841;DHT22;3458;53.678;14.080;2023-05-15T04:20:18;13.60;99.90
6841;DHT22;3458;53.678;14.080;2023-05-15T04:22:44;13.60;99.90
6841;DHT22;3458;53.678;14.080;2023-05-15T04:25:10;13.60;99.90
6841;DHT22;3458;53.678;14.080;2023-05-15T04:27:37;13.60;99.90
6841;DHT22;3458;53.678;14.080;2023-05-15T04:30:03;13.60;99.90
6841;DHT22;3458;53.678;14.080;2023-05-15T04:32:30;13.60;99.90
6841;DHT22;3458;53.678;14.080;2023-05-15T04:34:55;13.60;99.90
6841;DHT22;3458;53.678;14.080;2023-05-15T04:37:21;13.60;99.90
6841;DHT22;3458;53.678;14.080;2023-05-15T04:39:47;13.60;99.90
6841;DHT22;3458;53.678;14.080;2023-05-15T04:42:12;13.60;99.90
6841;DHT22;3458;53.678;14.080;2023-05-15T04:44:38;13.60;99.90
6841;DHT22;3458;53.678;14.080;2023-05-15T04:47:03;13.60;99.90
6841;DHT22;3458;53.678;14.080;2023-05-15T04:49:29;13.60;99.90
6841;DHT22;3458;53.678;14.080;2023-05-15T04:51:54;13.60;99.90
6841;DHT22;3458;53.678;14.080;2023-05-15T04:54:20;13.60;99.90
6841;DHT22;3458;53.678;14.080;2023-05-15T04:56:45;13.60;99.90
6841;DHT22;3458;53.678;14.080;2023-05-15T04:59:11;13.60;99.90
6841;DHT22;3458;53.678;14.080;2023-05-15T05:01:37;13.60;99.90
6841;DHT22;3458;53.678;14.080;2023-05-15T05:04:03;13.70;99.90
6841;DHT22;3458;53.678;14.080;2023-05-15T05:06:28;13.70;99.90
6841;DHT22;3458;53.678;14.080;2023-05-15T05:08:54;13.70;99.90
6841;DHT22;3458;53.678;14.080;2023-05-15T05:11:19;13.70;99.90
6841;DHT22;3458;53.678;14.080;2023-05-15T05:13:46;13.70;99.90
6841;DHT22;3458;53.678;14.080;2023-05-15T05:16:11;13.70;99.90
6841;DHT22;3458;53.678;14.080;2023-05-15T05:18:37;13.80;99.90
6841;DHT22;3458;53.678;14.080;2023-05-15T05:21:03;13.80;99.90
6841;DHT22;3458;53.678;14.080;2023-05-15T05:23:29;13.90;99.90
6841;DHT22;3458;53.678;14.080;2023-05-15T05:25:55;13.90;99.90
6841;DHT22;3458;53.678;14.080;2023-05-15T05:28:21;13.90;99.90
6841;DHT22;3458;53.678;14.080;2023-05-15T05:30:47;13.90;99.90
6841;DHT22;3458;53.678;14.080;2023-05-15T05:33:13;14.00;99.90
6841;DHT22;3458;53.678;14.080;2023-05-15T05:35:39;14.00;99.90
6841;DHT22;3458;53.678;14.080;2023-05-15T05:38:04;14.00;99.90
6841;DHT22;3458;53.678;14.080;2023-05-15T05:40:30;14.10;99.90
6841;DHT22;3458;53.678;14.080;2023-05-15T05:43:02;14.10;99.90
6841;DHT22;3458;53.678;14.080;2023-05-15T05:45:28;14.20;99.90
6841;DHT22;3458;53.678;14.080;2023-05-15T05:47:54;14.20;99.90
6841;DHT22;3458;53.678;14.080;2023-05-15T05:50:20;14.30;99.90
6841;DHT22;3458;53.678;14.080;2023-05-15T05:52:46;14.30;99.90
6841;DHT22;3458;53.678;14.080;2023-05-15T05:55:11;14.30;99.90
6841;DHT22;3458;53.678;14.080;2023-05-15T05:57:37;14.40;99.90
6841;DHT22;3458;53.678;14.080;2023-05-15T06:00:03;14.40;99.90
6841;DHT22;3458;53.678;14.080;2023-05-15T06:02:33;14.50;99.90
6841;DHT22;3458;53.678;14.080;2023-05-15T06:04:58;14.60;99.90
6841;DHT22;3458;53.678;14.080;2023-05-15T06:07:24;14.60;99.90
6841;DHT22;3458;53.678;14.080;2023-05-15T06:09:49;14.70;99.90
6841;DHT22;3458;53.678;14.080;2023-05-15T06:12:15;14.80;99.90
6841;DHT22;3458;53.678;14.080;2023-05-15T06:14:40;14.90;99.90
6841;DHT22;3458;53.678;14.080;2023-05-15T06:17:06;15.00;99.90
6841;DHT22;3458;53.678;14.080;2023-05-15T06:19:31;15.10;99.90
6841;DHT22;3458;53.678;14.080;2023-05-15T06:21:57;15.10;99.90
6841;DHT22;3458;53.678;14.080;2023-05-15T06:24:22;15.20;99.90
6841;DHT22;3458;53.678;14.080;2023-05-15T06:26:48;15.20;99.90
6841;DHT22;3458;53.678;14.080;2023-05-15T06:29:13;15.20;99.90
6841;DHT22;3458;53.678;14.080;2023-05-15T06:31:39;15.30;99.90
6841;DHT22;3458;53.678;14.080;2023-05-15T06:34:05;15.20;99.90
6841;DHT22;3458;53.678;14.080;2023-05-15T06:36:30;15.20;99.90
6841;DHT22;3458;53.678;14.080;2023-05-15T06:38:56;15.20;99.90
6841;DHT22;3458;53.678;14.080;2023-05-15T06:41:21;15.20;99.90
6841;DHT22;3458;53.678;14.080;2023-05-15T06:43:47;15.20;99.90
6841;DHT22;3458;53.678;14.080;2023-05-15T06:46:12;15.20;99.90
6841;DHT22;3458;53.678;14.080;2023-05-15T06:48:40;15.20;99.90
6841;DHT22;3458;53.678;14.080;2023-05-15T06:51:06;15.20;99.90
6841;DHT22;3458;53.678;14.080;2023-05-15T06:53:31;15.20;99.90
6841;DHT22;3458;53.678;14.080;2023-05-15T06:55:57;15.20;99.90
6841;DHT22;3458;53.678;14.080;2023-05-15T06:58:22;15.30;99.90
6841;DHT22;3458;53.678;14.080;2023-05-15T07:00:48;15.30;99.90
6841;DHT22;3458;53.678;14.080;2023-05-15T07:03:13;15.30;99.90
6841;DHT22;3458;53.678;14.080;2023-05-15T07:05:41;15.40;99.90
6841;DHT22;3458;53.678;14.080;2023-05-15T07:08:06;15.40;99.90
6841;DHT22;3458;53.678;14.080;2023-05-15T07:10:32;15.40;99.90
6841;DHT22;3458;53.678;14.080;2023-05-15T07:12:57;15.40;99.90
6841;DHT22;3458;53.678;14.080;2023-05-15T07:15:23;15.40;99.90
6841;DHT22;3458;53.678;14.080;2023-05-15T07:17:48;15.50;99.90
6841;DHT22;3458;53.678;14.080;2023-05-15T07:20:14;15.60;99.90
6841;DHT22;3458;53.678;14.080;2023-05-15T07:22:40;15.60;99.90
6841;DHT22;3458;53.678;14.080;2023-05-15T07:25:05;15.70;99.90
6841;DHT22;3458;53.678;14.080;2023-05-15T07:27:31;15.70;99.90
6841;DHT22;3458;53.678;14.080;2023-05-15T07:29:56;15.80;99.90
6841;DHT22;3458;53.678;14.080;2023-05-15T07:32:22;15.80;99.90
6841;DHT22;3458;53.678;14.080;2023-05-15T07:34:47;15.80;99.90
6841;DHT22;3458;53.678;14.080;2023-05-15T07:37:13;15.90;99.90
6841;DHT22;3458;53.678;14.080;2023-05-15T07:39:39;16.00;99.90
6841;DHT22;3458;53.678;14.080;2023-05-15T07:42:04;16.00;99.90
6841;DHT22;3458;53.678;14.080;2023-05-15T07:44:30;16.10;99.90
6841;DHT22;3458;53.678;14.080;2023-05-15T07:46:55;16.10;99.90
6841;DHT22;3458;53.678;14.080;2023-05-15T07:49:22;16.10;99.90
6841;DHT22;3458;53.678;14.080;2023-05-15T07:51:48;16.10;99.90
6841;DHT22;3458;53.678;14.080;2023-05-15T07:54:13;16.10;99.90
6841;DHT22;3458;53.678;14.080;2023-05-15T07:56:39;16.20;99.90
6841;DHT22;3458;53.678;14.080;2023-05-15T07:59:05;16.20;99.90
6841;DHT22;3458;53.678;14.080;2023-05-15T08:01:31;16.30;99.90
6841;DHT22;3458;53.678;14.080;2023-05-15T08:03:57;16.30;99.90
6841;DHT22;3458;53.678;14.080;2023-05-15T08:06:23;16.40;99.90
6841;DHT22;3458;53.678;14.080;2023-05-15T08:08:48;16.40;99.90
6841;DHT22;3458;53.678;14.080;2023-05-15T08:11:14;16.40;99.90
6841;DHT22;3458;53.678;14.080;2023-05-15T08:13:39;16.40;99.90
6841;DHT22;3458;53.678;14.080;2023-05-15T08:16:05;16.50;99.90
6841;DHT22;3458;53.678;14.080;2023-05-15T08:18:30;16.60;99.90
6841;DHT22;3458;53.678;14.080;2023-05-15T08:20:56;16.60;99.90
6841;DHT22;3458;53.678;14.080;2023-05-15T08:23:21;16.70;99.90
6841;DHT22;3458;53.678;14.080;2023-05-15T08:25:47;16.70;99.90
6841;DHT22;3458;53.678;14.080;2023-05-15T08:28:12;16.80;99.90
6841;DHT22;3458;53.678;14.080;2023-05-15T08:30:38;16.80;99.90
6841;DHT22;3458;53.678;14.080;2023-05-15T08:33:03;16.80;99.90
6841;DHT22;3458;53.678;14.080;2023-05-15T08:35:29;16.90;99.90
6841;DHT22;3458;53.678;14.080;2023-05-15T08:37:54;16.90;99.90
6841;DHT22;3458;53.678;14.080;2023-05-15T08:40:20;16.90;99.90
6841;DHT22;3458;53.678;14.080;2023-05-15T08:42:52;17.00;99.90
6841;DHT22;3458;53.678;14.080;2023-05-15T08:45:19;17.00;99.90
6841;DHT22;3458;53.678;14.080;2023-05-15T08:47:45;17.00;99.90
6841;DHT22;3458;53.678;14.080;2023-05-15T08:50:13;17.10;99.90
6841;DHT22;3458;53.678;14.080;2023-05-15T08:52:43;17.10;99.90
6841;DHT22;3458;53.678;14.080;2023-05-15T08:55:10;17.20;99.90
6841;DHT22;3458;53.678;14.080;2023-05-15T08:57:36;17.20;99.90
6841;DHT22;3458;53.678;14.080;2023-05-15T09:00:03;17.40;99.90
6841;DHT22;3458;53.678;14.080;2023-05-15T09:02:36;17.50;99.90
6841;DHT22;3458;53.678;14.080;2023-05-15T09:05:02;17.70;99.90
6841;DHT22;3458;53.678;14.080;2023-05-15T09:07:29;17.90;99.90
6841;DHT22;3458;53.678;14.080;2023-05-15T09:09:57;18.20;99.90
6841;DHT22;3458;53.678;14.080;2023-05-15T09:12:24;18.40;99.90
6841;DHT22;3458;53.678;14.080;2023-05-15T09:14:50;18.60;99.90
6841;DHT22;3458;53.678;14.080;2023-05-15T09:17:16;18.70;99.90
6841;DHT22;3458;53.678;14.080;2023-05-15T09:19:42;18.80;99.90
6841;DHT22;3458;53.678;14.080;2023-05-15T09:22:18;19.00;99.90
6841;DHT22;3458;53.678;14.080;2023-05-15T09:24:49;19.10;99.90
6841;DHT22;3458;53.678;14.080;2023-05-15T09:27:17;19.10;99.90
6841;DHT22;3458;53.678;14.080;2023-05-15T09:29:43;19.20;99.90
6841;DHT22;3458;53.678;14.080;2023-05-15T09:32:11;19.30;99.90
6841;DHT22;3458;53.678;14.080;2023-05-15T09:34:39;19.40;99.90
6841;DHT22;3458;53.678;14.080;2023-05-15T09:37:06;19.50;99.90
6841;DHT22;3458;53.678;14.080;2023-05-15T09:39:34;19.50;99.90
6841;DHT22;3458;53.678;14.080;2023-05-15T09:42:08;19.50;98.00
6841;DHT22;3458;53.678;14.080;2023-05-15T09:44:34;19.60;97.40
6841;DHT22;3458;53.678;14.080;2023-05-15T09:47:00;19.60;97.50
6841;DHT22;3458;53.678;14.080;2023-05-15T09:49:29;19.70;96.40
6841;DHT22;3458;53.678;14.080;2023-05-15T09:51:59;19.90;94.90
6841;DHT22;3458;53.678;14.080;2023-05-15T09:54:25;20.00;94.40
6841;DHT22;3458;53.678;14.080;2023-05-15T09:57:06;20.20;94.20
6841;DHT22;3458;53.678;14.080;2023-05-15T09:59:33;20.30;93.70
6841;DHT22;3458;53.678;14.080;2023-05-15T10:01:58;20.40;93.10
6841;DHT22;3458;53.678;14.080;2023-05-15T10:04:24;20.50;93.30
6841;DHT22;3458;53.678;14.080;2023-05-15T10:06:49;20.60;90.80
6841;DHT22;3458;53.678;14.080;2023-05-15T10:09:17;20.70;89.90
6841;DHT22;3458;53.678;14.080;2023-05-15T10:11:48;20.80;87.10
6841;DHT22;3458;53.678;14.080;2023-05-15T10:14:16;21.00;88.30
6841;DHT22;3458;53.678;14.080;2023-05-15T10:16:42;21.20;87.20
6841;DHT22;3458;53.678;14.080;2023-05-15T10:19:10;21.30;80.40
6841;DHT22;3458;53.678;14.080;2023-05-15T10:21:39;21.20;75.80
6841;DHT22;3458;53.678;14.080;2023-05-15T10:24:06;21.20;74.70
6841;DHT22;3458;53.678;14.080;2023-05-15T10:26:36;21.30;72.50
6841;DHT22;3458;53.678;14.080;2023-05-15T10:29:08;21.30;71.10
6841;DHT22;3458;53.678;14.080;2023-05-15T10:31:34;21.20;70.90
6841;DHT22;3458;53.678;14.080;2023-05-15T10:34:03;21.10;71.10
6841;DHT22;3458;53.678;14.080;2023-05-15T10:36:31;21.00;71.70
6841;DHT22;3458;53.678;14.080;2023-05-15T10:39:01;20.90;74.50
6841;DHT22;3458;53.678;14.080;2023-05-15T10:41:31;20.90;76.20
6841;DHT22;3458;53.678;14.080;2023-05-15T10:43:58;20.90;79.80
6841;DHT22;3458;53.678;14.080;2023-05-15T10:46:25;20.90;82.00
6841;DHT22;3458;53.678;14.080;2023-05-15T10:48:51;20.90;83.90
6841;DHT22;3458;53.678;14.080;2023-05-15T10:51:17;20.90;87.10
6841;DHT22;3458;53.678;14.080;2023-05-15T10:53:44;20.90;89.10
6841;DHT22;3458;53.678;14.080;2023-05-15T10:56:13;20.90;88.90
6841;DHT22;3458;53.678;14.080;2023-05-15T10:58:44;20.90;88.20
6841;DHT22;3458;53.678;14.080;2023-05-15T11:01:31;20.80;85.90
6841;DHT22;3458;53.678;14.080;2023-05-15T11:06:30;21.00;84.10
6841;DHT22;3458;53.678;14.080;2023-05-15T11:09:32;21.30;82.30
6841;DHT22;3458;53.678;14.080;2023-05-15T11:11:59;21.30;80.20
6841;DHT22;3458;53.678;14.080;2023-05-15T11:14:26;21.30;78.50
6841;DHT22;3458;53.678;14.080;2023-05-15T11:19:30;21.40;76.10
6841;DHT22;3458;53.678;14.080;2023-05-15T11:21:56;21.50;74.00
6841;DHT22;3458;53.678;14.080;2023-05-15T11:27:21;21.50;72.40
6841;DHT22;3458;53.678;14.080;2023-05-15T11:33:01;21.60;71.70
6841;DHT22;3458;53.678;14.080;2023-05-15T11:35:42;21.50;70.40
6841;DHT22;3458;53.678;14.080;2023-05-15T11:38:14;21.40;68.70
6841;DHT22;3458;53.678;14.080;2023-05-15T11:40:49;21.40;67.40
6841;DHT22;3458;53.678;14.080;2023-05-15T11:43:17;21.50;68.10
6841;DHT22;3458;53.678;14.080;2023-05-15T11:45:46;21.60;66.10
6841;DHT22;3458;53.678;14.080;2023-05-15T11:48:13;21.60;65.70
6841;DHT22;3458;53.678;14.080;2023-05-15T11:50:40;21.40;64.90
6841;DHT22;3458;53.678;14.080;2023-05-15T11:53:08;21.40;64.90
6841;DHT22;3458;53.678;14.080;2023-05-15T11:55:37;21.40;64.80
6841;DHT22;3458;53.678;14.080;2023-05-15T11:58:03;21.40;64.30
6841;DHT22;3458;53.678;14.080;2023-05-15T12:00:29;21.50;64.30
6841;DHT22;3458;53.678;14.080;2023-05-15T12:02:55;21.60;64.00
6841;DHT22;3458;53.678;14.080;2023-05-15T12:05:21;21.60;64.10
6841;DHT22;3458;53.678;14.080;2023-05-15T12:07:46;21.80;64.70
6841;DHT22;3458;53.678;14.080;2023-05-15T12:10:12;22.30;64.70
6841;DHT22;3458;53.678;14.080;2023-05-15T12:12:40;23.10;63.20
6841;DHT22;3458;53.678;14.080;2023-05-15T12:15:09;24.50;63.30
6841;DHT22;3458;53.678;14.080;2023-05-15T12:17:36;26.00;58.30
6841;DHT22;3458;53.678;14.080;2023-05-15T12:20:02;27.40;56.10
6841;DHT22;3458;53.678;14.080;2023-05-15T12:22:35;28.40;52.90
6841;DHT22;3458;53.678;14.080;2023-05-15T12:25:00;29.00;49.50
6841;DHT22;3458;53.678;14.080;2023-05-15T12:27:26;29.30;48.60
6841;DHT22;3458;53.678;14.080;2023-05-15T12:29:53;29.70;47.10
6841;DHT22;3458;53.678;14.080;2023-05-15T12:32:18;29.90;44.80
6841;DHT22;3458;53.678;14.080;2023-05-15T12:34:45;30.10;45.30
6841;DHT22;3458;53.678;14.080;2023-05-15T12:37:11;29.80;43.10
6841;DHT22;3458;53.678;14.080;2023-05-15T12:39:52;28.30;42.70
6841;DHT22;3458;53.678;14.080;2023-05-15T12:42:18;27.00;45.20
6841;DHT22;3458;53.678;14.080;2023-05-15T12:44:43;26.10;46.90
6841;DHT22;3458;53.678;14.080;2023-05-15T12:47:11;26.40;48.00
6841;DHT22;3458;53.678;14.080;2023-05-15T12:49:37;27.00;48.10
6841;DHT22;3458;53.678;14.080;2023-05-15T12:52:09;27.70;47.80
6841;DHT22;3458;53.678;14.080;2023-05-15T12:54:39;28.20;45.00
6841;DHT22;3458;53.678;14.080;2023-05-15T12:57:08;28.20;44.70
6841;DHT22;3458;53.678;14.080;2023-05-15T12:59:34;28.00;42.80
6841;DHT22;3458;53.678;14.080;2023-05-15T13:02:00;27.90;42.40
6841;DHT22;3458;53.678;14.080;2023-05-15T13:04:25;27.90;41.40
6841;DHT22;3458;53.678;14.080;2023-05-15T13:06:51;27.90;40.60
6841;DHT22;3458;53.678;14.080;2023-05-15T13:09:23;28.00;40.90
6841;DHT22;3458;53.678;14.080;2023-05-15T13:11:50;28.20;40.70
6841;DHT22;3458;53.678;14.080;2023-05-15T13:14:16;28.50;40.70
6841;DHT22;3458;53.678;14.080;2023-05-15T13:16:44;28.70;40.90
6841;DHT22;3458;53.678;14.080;2023-05-15T13:19:10;28.80;38.70
6841;DHT22;3458;53.678;14.080;2023-05-15T13:21:36;28.60;38.60
6841;DHT22;3458;53.678;14.080;2023-05-15T13:24:01;28.10;38.00
6841;DHT22;3458;53.678;14.080;2023-05-15T13:26:27;28.00;38.70
6841;DHT22;3458;53.678;14.080;2023-05-15T13:28:53;27.80;38.30
6841;DHT22;3458;53.678;14.080;2023-05-15T13:31:18;28.00;39.40
6841;DHT22;3458;53.678;14.080;2023-05-15T13:33:44;28.20;38.40
6841;DHT22;3458;53.678;14.080;2023-05-15T13:36:10;27.80;37.30
6841;DHT22;3458;53.678;14.080;2023-05-15T13:38:35;27.30;37.80
6841;DHT22;3458;53.678;14.080;2023-05-15T13:41:02;27.30;38.50
6841;DHT22;3458;53.678;14.080;2023-05-15T13:43:28;27.70;39.00
6841;DHT22;3458;53.678;14.080;2023-05-15T13:45:53;27.80;38.00
6841;DHT22;3458;53.678;14.080;2023-05-15T13:48:19;27.70;36.80
6841;DHT22;3458;53.678;14.080;2023-05-15T13:50:44;27.80;36.70
6841;DHT22;3458;53.678;14.080;2023-05-15T13:53:10;27.60;38.20
6841;DHT22;3458;53.678;14.080;2023-05-15T13:55:44;27.20;37.80
6841;DHT22;3458;53.678;14.080;2023-05-15T13:58:13;26.70;38.00
6841;DHT22;3458;53.678;14.080;2023-05-15T14:00:41;26.30;38.60
6841;DHT22;3458;53.678;14.080;2023-05-15T14:03:06;26.30;38.90
6841;DHT22;3458;53.678;14.080;2023-05-15T14:05:32;26.80;39.70
6841;DHT22;3458;53.678;14.080;2023-05-15T14:07:58;27.60;39.20
6841;DHT22;3458;53.678;14.080;2023-05-15T14:10:23;28.10;38.30
6841;DHT22;3458;53.678;14.080;2023-05-15T14:12:49;28.40;37.50
6841;DHT22;3458;53.678;14.080;2023-05-15T14:15:15;29.00;38.10
6841;DHT22;3458;53.678;14.080;2023-05-15T14:17:41;29.60;37.80
6841;DHT22;3458;53.678;14.080;2023-05-15T14:20:07;29.20;36.20
6841;DHT22;3458;53.678;14.080;2023-05-15T14:22:34;28.40;36.10
6841;DHT22;3458;53.678;14.080;2023-05-15T14:25:01;28.40;37.30
6841;DHT22;3458;53.678;14.080;2023-05-15T14:27:27;27.90;39.90
6841;DHT22;3458;53.678;14.080;2023-05-15T14:29:53;27.70;41.80
6841;DHT22;3458;53.678;14.080;2023-05-15T14:32:21;28.80;42.00
6841;DHT22;3458;53.678;14.080;2023-05-15T14:34:46;28.70;41.20
6841;DHT22;3458;53.678;14.080;2023-05-15T14:37:12;28.10;41.00
6841;DHT22;3458;53.678;14.080;2023-05-15T14:39:37;27.60;42.50
6841;DHT22;3458;53.678;14.080;2023-05-15T14:42:03;27.40;42.80
6841;DHT22;3458;53.678;14.080;2023-05-15T14:44:29;27.90;42.50
6841;DHT22;3458;53.678;14.080;2023-05-15T14:47:05;27.50;42.80
6841;DHT22;3458;53.678;14.080;2023-05-15T14:54:23;26.80;43.80
6841;DHT22;3458;53.678;14.080;2023-05-15T14:56:49;25.10;47.60
6841;DHT22;3458;53.678;14.080;2023-05-15T14:59:14;24.40;47.50
6841;DHT22;3458;53.678;14.080;2023-05-15T15:01:40;24.10;49.40
6841;DHT22;3458;53.678;14.080;2023-05-15T15:04:05;23.80;50.10
6841;DHT22;3458;53.678;14.080;2023-05-15T15:06:31;23.50;50.60
6841;DHT22;3458;53.678;14.080;2023-05-15T15:08:56;23.30;51.00
6841;DHT22;3458;53.678;14.080;2023-05-15T15:11:22;23.00;51.60
6841;DHT22;3458;53.678;14.080;2023-05-15T15:13:47;22.80;52.90
6841;DHT22;3458;53.678;14.080;2023-05-15T15:16:13;22.50;53.60
6841;DHT22;3458;53.678;14.080;2023-05-15T15:18:38;22.20;54.60
6841;DHT22;3458;53.678;14.080;2023-05-15T15:21:04;22.10;55.30
6841;DHT22;3458;53.678;14.080;2023-05-15T15:23:29;22.00;55.90
6841;DHT22;3458;53.678;14.080;2023-05-15T15:25:55;21.90;55.30
6841;DHT22;3458;53.678;14.080;2023-05-15T15:28:20;21.90;55.50
6841;DHT22;3458;53.678;14.080;2023-05-15T15:30:46;21.80;56.10
6841;DHT22;3458;53.678;14.080;2023-05-15T15:33:11;21.80;56.60
6841;DHT22;3458;53.678;14.080;2023-05-15T15:35:37;21.70;57.30
6841;DHT22;3458;53.678;14.080;2023-05-15T15:38:02;21.60;57.40
6841;DHT22;3458;53.678;14.080;2023-05-15T15:40:29;21.50;57.40
6841;DHT22;3458;53.678;14.080;2023-05-15T15:42:55;21.40;57.80
6841;DHT22;3458;53.678;14.080;2023-05-15T15:45:20;21.20;58.40
6841;DHT22;3458;53.678;14.080;2023-05-15T15:47:46;21.20;58.80
6841;DHT22;3458;53.678;14.080;2023-05-15T15:50:11;21.00;58.80
6841;DHT22;3458;53.678;14.080;2023-05-15T15:52:37;21.00;58.10
6841;DHT22;3458;53.678;14.080;2023-05-15T15:55:02;20.90;56.80
6841;DHT22;3458;53.678;14.080;2023-05-15T15:57:28;20.80;56.40
6841;DHT22;3458;53.678;14.080;2023-05-15T15:59:54;20.70;56.50
6841;DHT22;3458;53.678;14.080;2023-05-15T16:02:19;20.70;57.00
6841;DHT22;3458;53.678;14.080;2023-05-15T16:04:45;20.60;56.90
6841;DHT22;3458;53.678;14.080;2023-05-15T16:07:11;20.50;57.70
6841;DHT22;3458;53.678;14.080;2023-05-15T16:09:36;20.60;58.10
6841;DHT22;3458;53.678;14.080;2023-05-15T16:12:02;20.50;58.30
6841;DHT22;3458;53.678;14.080;2023-05-15T16:14:28;20.50;58.30